Albuquerque (West), NM

8:42 PM MDT on March 26, 2017 (GMT -0600)
Parkwest Village - Next to the Petroglyph Natl. Monument | | Change Station

Elev 5280 ft 35.11 °N, 106.74 °W | Updated 1 second ago

Clear
Clear
55.1 °F
Feels Like 55.1 °F
N
4.6
Wind Variable Wind from WNW
Gusts 8.1 mph

Today
High -- | Low -- °F
--% Chance of Precip.
Yesterday
High -- | Low -- °F
Precip. -- in
Pressure 29.99 in
Visibility 10.0 miles
Clouds Clear
Dew Point 22 °F
Humidity 27%
Rainfall 0.00 in
Snow Depth Not available.
7:01 AM 7:24 PM
Waning Crescent, 1% visible
METAR KAEG 270147Z 32007KT 10SM SKC 14/M05 A2999
Pressure 29.99 in
Visibility 10.0 miles
Clouds Clear
Dew Point 22 °F
Humidity 27%
Rainfall 0.00 in
Snow Depth Not available.
7:01 AM 7:24 PM
Waning Crescent, 1% visible
METAR KAEG 270147Z 32007KT 10SM SKC 14/M05 A2999

Get Severe Weather Alerts

Thanks for signing up!

Be on the lookout for a verification email in your inbox.

You'll start receiving the daily forecast at 8 AM.

×

10-Day Weather Forecast

Almanac

Astronomy

Mar. 26, 2017 Rise Set
Actual Time
Civil Twilight
Nautical Twilight
Astronomical Twilight
Moon
Length of Visible Light
Length of Day
Tomorrow will be .
, % of the Moon is Illuminated

Today's Extremes

State Highs State Lows

Community

WunderPhotos

Upload Photos

1,962,540 photos uploaded!

WunderBlog® & News

Nearby

Air Quality

  Air Quality AQ Index Pollutant
Not available.

Snow Depth

Station Depth Elevation

Earthquake Activity

City Distance Mag. Time & Date
Minimum magnitude displayed is 2.5.

Earthquake Activity

City Distance Mag. Time & Date
Minimum magnitude displayed is 2.5.

Coastal Water Temperatures

Place Temperature

Stations

Nearby Weather Stations

Station Location Temp. Windchill Dew Point Humidity Wind Precip. Elev Updated Type
                   

Watches & Warnings

There are currently no watches in effect.